METAR Data
IDs: Format: Raw Decoded Include TAF

Data at: 2219 UTC 23 Apr 2019

KLRU 232155Z AUTO 13003KT 10SM SCT110 24/00 A2992 RMK AO2 T02420002
KLRU 232135Z AUTO 12009G14KT 10SM SCT075 SCT120 24/02 A2994 RMK AO2 T02380021
KLRU 232115Z AUTO 08008G14KT 10SM BKN080 BKN100 OVC120 23/03 A2994 RMK AO2 LTG DSNT NW T02330025
KLRU 232055Z AUTO 11009G14KT 10SM SCT070 SCT080 BKN120 23/03 A2995 RMK AO2 LTG DSNT W THRU NE T02300033
KLRU 232035Z AUTO 15009KT 10SM SCT070 SCT080 BKN120 22/03 A2996 RMK AO2 LTG DSNT N T02200029
KLRU 232015Z AUTO 13007KT 10SM SCT070 SCT090 BKN120 22/02 A2998 RMK AO2 LTG DSNT NE T02210023
KLRU 231955Z AUTO 10007G15KT 10SM SCT055 24/02 A2998 RMK AO2 LTG DSNT N AND NW T02370023
KLRU 231935Z AUTO 12010G15KT 050V140 10SM SCT055 SCT070 BKN100 24/05 A2999 RMK AO2 T02380049
KLRU 231915Z AUTO 10010G15KT 10SM SCT055 SCT090 SCT110 22/05 A3000 RMK AO2 T02170045
KLRU 231855Z AUTO 12011G16KT 090V170 10SM SCT055 22/05 A3001 RMK AO2 LTG DSNT N T02180054
KLRU 231835Z AUTO 11008G15KT 10SM CLR 21/06 A3002 RMK AO2 T02090062
KLRU 231815Z AUTO 07005KT 10SM CLR 20/06 A3003 RMK AO2 T01980064
KLRU 231755Z AUTO 07007KT 10SM CLR 20/07 A3004 RMK AO2 T01980066 10201 20110
KLRU 231735Z AUTO 08004G08KT 10SM SCT042 19/07 A3005 RMK AO2 T01940065
KLRU 231715Z AUTO 08004KT 10SM CLR 19/07 A3005 RMK AO2 T01890073
KLRU 231655Z AUTO 07004KT 10SM CLR 19/08 A3006 RMK AO2 T01860076
KLRU 231635Z AUTO 06004KT 10SM CLR 18/08 A3006 RMK AO2 T01770075
KLRU 231615Z AUTO 00000KT 10SM CLR 17/07 A3006 RMK AO2 T01680072
KLRU 231555Z AUTO 00000KT 10SM CLR 16/07 A3006 RMK AO2 T01640071
KLRU 231535Z AUTO 00000KT 10SM CLR 15/07 A3007 RMK AO2 T01540070
KLRU 231515Z AUTO 06003KT 10SM CLR 15/07 A3007 RMK AO2 T01500069
KLRU 231455Z AUTO 00000KT 10SM CLR 14/07 A3007 RMK AO2 T01440074
KLRU 231435Z AUTO 09003KT 10SM SCT090 SCT110 14/07 A3007 RMK AO2 T01370073
KLRU 231415Z AUTO 09005KT 10SM SCT090 BKN110 13/08 A3007 RMK AO2 T01310076
KLRU 231355Z AUTO 11006KT 10SM BKN090 13/08 A3006 RMK AO2 T01300075
KLRU 231335Z AUTO 10006KT 10SM CLR 12/07 A3005 RMK AO2 T01210070
KLRU 231315Z AUTO 08008KT 10SM CLR 11/07 A3005 RMK AO2 T01110067
KLRU 231255Z AUTO 36006KT 10SM SCT026 SCT040 SCT090 12/06 A3004 RMK AO2 T01170062
KLRU 231235Z AUTO 33008KT 10SM BKN085 OVC100 13/06 A3004 RMK AO2 T01290061
KLRU 231215Z AUTO 27011KT 10SM BKN085 BKN110 12/06 A3005 RMK AO2 T01210063
KLRU 231155Z AUTO 02006KT 10SM CLR 11/06 A3003 RMK AO2 LTG DSNT W 70004 T01100060 10130 20103
KLRU 231135Z AUTO 32005KT 10SM SCT080 11/06 A3003 RMK AO2 LTG DSNT W T01080056
KLRU 231115Z AUTO 32006KT 10SM SCT090 11/06 A3003 RMK AO2 T01100055
KLRU 231055Z AUTO 01007KT 10SM SCT090 11/06 A3001 RMK AO2 LTG DSNT W T01110055
KLRU 231035Z AUTO 36006KT 10SM BKN090 11/05 A3001 RMK AO2 LTG DSNT W T01140052
KLRU 231015Z AUTO 01006KT 10SM BKN090 12/05 A3001 RMK AO2 T01180050
KLRU 230955Z AUTO 02006KT 10SM BKN090 11/05 A3001 RMK AO2 T01110050
KLRU 230935Z AUTO 01007KT 10SM SCT090 12/05 A3001 RMK AO2 T01160050
KLRU 230915Z AUTO 02007KT 10SM SCT090 12/06 A3001 RMK AO2 T01160055
KLRU 230855Z AUTO 02008KT 10SM SCT090 12/06 A3002 RMK AO2 T01210059
KLRU 230835Z AUTO 02009KT 10SM SCT100 12/06 A3002 RMK AO2 T01240060
KLRU 230815Z AUTO 03009KT 10SM SCT100 12/07 A3003 RMK AO2 T01200066
KLRU 230755Z AUTO 02008KT 10SM VCTS SCT110 11/07 A3003 RMK AO2 LTG DSNT NE T01120071
KLRU 230735Z AUTO 35006KT 10SM SCT110 11/08 A3005 RMK AO2 T01120077
KLRU 230715Z AUTO 32007KT 10SM CLR 11/08 A3005 RMK AO2 LTG DSNT NE AND E T01140077
KLRU 230655Z AUTO 32006KT 10SM VCTS CLR 11/08 A3004 RMK AO2 LTG DSNT NE AND E T01110077
KLRU 230635Z AUTO 31004KT 10SM VCTS SCT110 13/07 A3003 RMK AO2 LTG DSNT NE T01290072
KLRU 230615Z AUTO 34009KT 10SM SCT070 OVC110 13/08 A3003 RMK AO2 LTG DSNT NE T01250076
KLRU 230555Z AUTO 36007KT 10SM BKN070 BKN090 13/08 A3004 RMK AO2 T01260080 10145 20113
KLRU 230535Z AUTO 33004KT 10SM SCT080 SCT100 12/08 A3004 RMK AO2 LTG DSNT NE T01150081
KLRU 230515Z AUTO 03004KT 10SM SCT095 SCT120 12/08 A3003 RMK AO2 LTG DSNT SE T01150080
KLRU 230455Z AUTO 33006KT 10SM SCT120 13/08 A3002 RMK AO2 T01250082
KLRU 230430Z AUTO 33010KT 10SM SCT095 13/08 A3001 RMK AO2 T01280080
KLRU 230415Z AUTO 33010KT 10SM CLR 13/08 A3001 RMK AO2 T01270081
KLRU 230355Z AUTO 32007KT 10SM SCT120 13/08 A3000 RMK AO2 T01270080
KLRU 230335Z AUTO 33005KT 10SM BKN110 13/08 A3000 RMK AO2 LTG DSNT E T01320078
KLRU 230315Z AUTO 33008KT 10SM BKN110 13/08 A2999 RMK AO2 LTG DSNT E T01260082
KLRU 230255Z AUTO 32006KT 10SM CLR 12/08 A2999 RMK AO2 LTG DSNT E T01220081
KLRU 230235Z AUTO 32004KT 10SM CLR 12/09 A2998 RMK AO2 T01240085
KLRU 230215Z AUTO 35005KT 10SM CLR 13/08 A2997 RMK AO2 LTG DSNT W T01330077
KLRU 230155Z AUTO 05008KT 10SM CLR 13/08 A2997 RMK AO2 T01320082
KLRU 230135Z AUTO 04011KT 10SM CLR 14/09 A2996 RMK AO2 T01360085
KLRU 230115Z AUTO 04011G16KT 10SM CLR 14/09 A2997 RMK AO2 LTG DSNT NE AND E T01420093
KLRU 230055Z AUTO 06012G22KT 10SM SCT120 15/10 A2998 RMK AO2 LTG DSNT E T01450102
KLRU 230035Z AUTO 08015G19KT 10SM -RA SCT055 BKN090 BKN120 13/11 A2998 RMK AO2 LTG DSNT NE AND W T01340106
KLRU 230015Z AUTO 09005KT 10SM -RA SCT065 OVC090 14/11 A3002 RMK AO2 LTG DSNT NE AND E T01370108
KLRU 222355Z AUTO 29004KT 10SM RA SCT065 BKN075 OVC090 14/10 A3004 RMK AO2 P0002 60004 T01420103 10268 20140
KLRU 222335Z AUTO 24008G17KT 10SM -RA BKN065 OVC090 14/10 A3006 RMK AO2 LTG DSNT E P0001 T01410097
KLRU 222315Z AUTO 27017G24KT 10SM -RA BKN065 OVC075 15/08 A3005 RMK AO2 T01460080
KLRU 222255Z AUTO 23010KT 10SM -RA BKN070 OVC080 17/08 A3003 RMK AO2 P0002 T01660079
KLRU 222235Z AUTO 25011G16KT 10SM -RA BKN065 OVC075 17/08 A3001 RMK AO2 P0001 T01680080
KLRU 222215Z AUTO 24013G26KT 10SM -TSRA SCT018 BKN065 OVC100 17/07 A3000 RMK AO2 LTG DSNT S P0001 T01730071
KLRU 222155Z AUTO 20008G28KT 160V340 10SM -RA SCT060 SCT080 OVC100 23/M01 A2996 RMK AO2 T02331007
KLRU 222135Z AUTO 25011G20KT 10SM SCT080 OVC100 24/M03 A2994 RMK AO2 T02441027
KLRU 222115Z AUTO 14007KT 10SM BKN110 25/M03 A2995 RMK AO2 T02511034
KLRU 222055Z AUTO 20008G18KT 10SM SCT100 SCT120 26/M04 A2995 RMK AO2 T02601041
KLRU 222035Z AUTO 19004KT 10SM SCT100 27/M02 A2996 RMK AO2 T02651017
KLRU 222015Z AUTO 17006G20KT 10SM SCT090 27/M02 A2998 RMK AO2 T02661016
KLRU 221955Z AUTO 16009KT 130V200 10SM SCT090 26/M02 A2999 RMK AO2 T02581018
KLRU 221935Z AUTO 17011G16KT 120V200 10SM CLR 26/M02 A2999 RMK AO2 T02601020
KLRU 221915Z AUTO 12005KT 10SM CLR 24/M01 A3000 RMK AO2 T02421014
KLRU 221855Z AUTO 21005G16KT 10SM CLR 24/M01 A3002 RMK AO2 T02381009
KLRU 221835Z AUTO 17006KT 10SM CLR 24/M01 A3003 RMK AO2 T02401006
KLRU 221815Z AUTO 17005KT 10SM CLR 23/00 A3003 RMK AO2 T02281001
KLRU 221755Z AUTO 00000KT 10SM CLR 22/00 A3003 RMK AO2 T02241002 10233 20130
KLRU 221735Z AUTO 00000KT 10SM CLR 23/00 A3004 RMK AO2 T02330004
KLRU 221715Z AUTO 00000KT 10SM CLR 22/01 A3005 RMK AO2 T02150007
KLRU 221655Z AUTO 00000KT 10SM CLR 21/00 A3005 RMK AO2 T02100004
KLRU 221635Z AUTO 28004KT 10SM CLR 21/00 A3006 RMK AO2 T02091004
KLRU 221615Z AUTO 00000KT 10SM CLR 21/M01 A3006 RMK AO2 T02061011
KLRU 221555Z AUTO 24004KT 10SM CLR 21/M02 A3006 RMK AO2 T02061017
KLRU 221535Z AUTO 25005KT 10SM CLR 20/M02 A3006 RMK AO2 T02001020
KLRU 221515Z AUTO 24004KT 10SM CLR 19/M02 A3005 RMK AO2 T01871018
KLRU 221455Z AUTO 26004KT 10SM CLR 18/M02 A3005 RMK AO2 T01751016
KLRU 221435Z AUTO 26003KT 10SM CLR 17/M02 A3005 RMK AO2 T01731019
KLRU 221415Z AUTO 28004KT 10SM CLR 16/M02 A3004 RMK AO2 T01641021
KLRU 221355Z AUTO 29003KT 10SM CLR 15/M03 A3004 RMK AO2 T01461026
KLRU 221335Z AUTO 27006KT 10SM CLR 13/M03 A3003 RMK AO2 T01321026
KLRU 221315Z AUTO 28003KT 10SM CLR 13/M03 A3003 RMK AO2 T01311030
KLRU 221255Z AUTO 28007KT 10SM CLR 14/M03 A3002 RMK AO2 T01351033
KLRU 221235Z AUTO 27007KT 10SM CLR 13/M03 A3002 RMK AO2 T01311031
KLRU 221215Z AUTO 24005KT 10SM CLR 14/M03 A3001 RMK AO2 T01351031
KLRU 221155Z AUTO 26007KT 10SM CLR 14/M03 A3001 RMK AO2 T01351029 10205 20135
KLRU 221135Z AUTO 26006KT 10SM CLR 15/M03 A3001 RMK AO2 T01451027
KLRU 221115Z AUTO 27008KT 10SM CLR 16/M03 A3001 RMK AO2 T01551028
KLRU 221055Z AUTO 27006KT 10SM CLR 16/M03 A3001 RMK AO2 T01621029
KLRU 221035Z AUTO 30005KT 10SM CLR 17/M03 A3001 RMK AO2 T01701028